sensor_id;sensor_type;location;lat;lon;timestamp;P1;durP1;ratioP1;P2;durP2;ratioP2
48897;SDS011;34713;50.038;20.000;2023-10-09T00:01:07;10.40;;;6.50;;
48897;SDS011;34713;50.038;20.000;2023-10-09T00:14:14;13.60;;;6.90;;
48897;SDS011;34713;50.038;20.000;2023-10-09T00:17:12;11.70;;;6.90;;
48897;SDS011;34713;50.038;20.000;2023-10-09T00:23:50;13.10;;;6.70;;
48897;SDS011;34713;50.038;20.000;2023-10-09T00:26:27;12.10;;;6.70;;
48897;SDS011;34713;50.038;20.000;2023-10-09T00:29:18;14.60;;;7.20;;
48897;SDS011;34713;50.038;20.000;2023-10-09T00:32:17;14.80;;;7.40;;
48897;SDS011;34713;50.038;20.000;2023-10-09T00:35:13;11.70;;;6.20;;
48897;SDS011;34713;50.038;20.000;2023-10-09T00:41:28;14.40;;;7.20;;
48897;SDS011;34713;50.038;20.000;2023-10-09T00:57:54;12.30;;;7.20;;
48897;SDS011;34713;50.038;20.000;2023-10-09T01:03:52;10.80;;;5.20;;
48897;SDS011;34713;50.038;20.000;2023-10-09T01:33:55;13.20;;;6.50;;
48897;SDS011;34713;50.038;20.000;2023-10-09T01:57:02;11.60;;;5.70;;
48897;SDS011;34713;50.038;20.000;2023-10-09T02:00:05;9.20;;;5.50;;
48897;SDS011;34713;50.038;20.000;2023-10-09T02:03:07;13.00;;;6.20;;
48897;SDS011;34713;50.038;20.000;2023-10-09T02:15:08;9.90;;;5.30;;
48897;SDS011;34713;50.038;20.000;2023-10-09T02:18:33;10.30;;;5.50;;
48897;SDS011;34713;50.038;20.000;2023-10-09T02:23:41;9.80;;;5.10;;
48897;SDS011;34713;50.038;20.000;2023-10-09T02:29:54;6.80;;;4.30;;
48897;SDS011;34713;50.038;20.000;2023-10-09T02:32:24;10.00;;;5.20;;
48897;SDS011;34713;50.038;20.000;2023-10-09T02:34:56;7.60;;;4.90;;
48897;SDS011;34713;50.038;20.000;2023-10-09T02:37:32;9.30;;;4.60;;
48897;SDS011;34713;50.038;20.000;2023-10-09T02:39:59;9.20;;;4.60;;
48897;SDS011;34713;50.038;20.000;2023-10-09T02:42:31;9.50;;;4.70;;
48897;SDS011;34713;50.038;20.000;2023-10-09T02:44:58;8.20;;;4.90;;
48897;SDS011;34713;50.038;20.000;2023-10-09T02:47:25;9.40;;;4.80;;
48897;SDS011;34713;50.038;20.000;2023-10-09T02:50:04;8.30;;;4.70;;
48897;SDS011;34713;50.038;20.000;2023-10-09T02:52:41;10.80;;;4.40;;
48897;SDS011;34713;50.038;20.000;2023-10-09T02:55:10;8.10;;;4.40;;
48897;SDS011;34713;50.038;20.000;2023-10-09T02:57:49;7.90;;;4.20;;
48897;SDS011;34713;50.038;20.000;2023-10-09T03:00:22;8.20;;;4.00;;
48897;SDS011;34713;50.038;20.000;2023-10-09T03:03:02;7.50;;;4.50;;
48897;SDS011;34713;50.038;20.000;2023-10-09T03:05:33;17.20;;;4.30;;
48897;SDS011;34713;50.038;20.000;2023-10-09T03:08:00;9.80;;;4.40;;
48897;SDS011;34713;50.038;20.000;2023-10-09T03:10:28;6.40;;;3.80;;
48897;SDS011;34713;50.038;20.000;2023-10-09T03:13:00;5.80;;;3.40;;
48897;SDS011;34713;50.038;20.000;2023-10-09T03:15:34;7.90;;;4.40;;
48897;SDS011;34713;50.038;20.000;2023-10-09T03:18:02;7.60;;;3.90;;
48897;SDS011;34713;50.038;20.000;2023-10-09T03:20:31;7.80;;;4.40;;
48897;SDS011;34713;50.038;20.000;2023-10-09T03:22:57;9.60;;;4.50;;
48897;SDS011;34713;50.038;20.000;2023-10-09T03:25:27;7.10;;;3.90;;
48897;SDS011;34713;50.038;20.000;2023-10-09T03:28:03;8.60;;;4.60;;
48897;SDS011;34713;50.038;20.000;2023-10-09T03:30:31;8.30;;;4.60;;
48897;SDS011;34713;50.038;20.000;2023-10-09T03:32:58;8.30;;;4.60;;
48897;SDS011;34713;50.038;20.000;2023-10-09T03:35:27;11.30;;;5.30;;
48897;SDS011;34713;50.038;20.000;2023-10-09T03:37:56;11.90;;;5.00;;
48897;SDS011;34713;50.038;20.000;2023-10-09T03:40:26;10.20;;;4.80;;
48897;SDS011;34713;50.038;20.000;2023-10-09T03:42:58;10.70;;;4.90;;
48897;SDS011;34713;50.038;20.000;2023-10-09T03:45:27;9.20;;;5.10;;
48897;SDS011;34713;50.038;20.000;2023-10-09T03:47:56;10.80;;;4.90;;
48897;SDS011;34713;50.038;20.000;2023-10-09T03:50:38;10.10;;;4.80;;
48897;SDS011;34713;50.038;20.000;2023-10-09T03:53:07;7.60;;;4.30;;
48897;SDS011;34713;50.038;20.000;2023-10-09T03:55:36;8.10;;;4.30;;
48897;SDS011;34713;50.038;20.000;2023-10-09T03:58:10;11.10;;;4.20;;
48897;SDS011;34713;50.038;20.000;2023-10-09T04:00:41;10.00;;;4.50;;
48897;SDS011;34713;50.038;20.000;2023-10-09T04:03:11;8.90;;;3.70;;
48897;SDS011;34713;50.038;20.000;2023-10-09T04:05:41;9.40;;;4.10;;
48897;SDS011;34713;50.038;20.000;2023-10-09T04:08:10;8.50;;;3.90;;
48897;SDS011;34713;50.038;20.000;2023-10-09T04:10:42;8.30;;;4.50;;
48897;SDS011;34713;50.038;20.000;2023-10-09T04:13:10;7.40;;;4.10;;
48897;SDS011;34713;50.038;20.000;2023-10-09T04:15:43;9.00;;;4.70;;
48897;SDS011;34713;50.038;20.000;2023-10-09T04:18:33;8.40;;;4.10;;
48897;SDS011;34713;50.038;20.000;2023-10-09T04:21:05;8.50;;;4.20;;
48897;SDS011;34713;50.038;20.000;2023-10-09T04:26:40;11.40;;;4.10;;
48897;SDS011;34713;50.038;20.000;2023-10-09T04:29:11;7.80;;;4.60;;
48897;SDS011;34713;50.038;20.000;2023-10-09T04:31:54;7.20;;;3.70;;
48897;SDS011;34713;50.038;20.000;2023-10-09T04:34:23;7.20;;;4.20;;
48897;SDS011;34713;50.038;20.000;2023-10-09T04:36:58;7.40;;;3.70;;
48897;SDS011;34713;50.038;20.000;2023-10-09T04:39:36;7.70;;;3.80;;
48897;SDS011;34713;50.038;20.000;2023-10-09T04:42:04;8.90;;;3.90;;
48897;SDS011;34713;50.038;20.000;2023-10-09T04:44:50;9.00;;;3.70;;
48897;SDS011;34713;50.038;20.000;2023-10-09T04:47:29;6.80;;;3.90;;
48897;SDS011;34713;50.038;20.000;2023-10-09T04:50:09;8.10;;;4.70;;
48897;SDS011;34713;50.038;20.000;2023-10-09T04:52:44;8.70;;;4.10;;
48897;SDS011;34713;50.038;20.000;2023-10-09T04:55:12;5.60;;;3.10;;
48897;SDS011;34713;50.038;20.000;2023-10-09T04:57:44;6.30;;;3.60;;
48897;SDS011;34713;50.038;20.000;2023-10-09T05:00:27;8.00;;;4.30;;
48897;SDS011;34713;50.038;20.000;2023-10-09T05:02:54;8.60;;;3.50;;
48897;SDS011;34713;50.038;20.000;2023-10-09T05:05:23;7.70;;;3.90;;
48897;SDS011;34713;50.038;20.000;2023-10-09T05:08:15;10.60;;;4.50;;
48897;SDS011;34713;50.038;20.000;2023-10-09T05:10:56;7.30;;;3.80;;
48897;SDS011;34713;50.038;20.000;2023-10-09T05:13:41;8.40;;;4.30;;
48897;SDS011;34713;50.038;20.000;2023-10-09T05:16:12;6.60;;;3.70;;
48897;SDS011;34713;50.038;20.000;2023-10-09T05:18:55;7.90;;;3.80;;
48897;SDS011;34713;50.038;20.000;2023-10-09T05:21:23;9.10;;;4.10;;
48897;SDS011;34713;50.038;20.000;2023-10-09T05:23:59;9.40;;;4.20;;
48897;SDS011;34713;50.038;20.000;2023-10-09T05:26:46;8.00;;;3.60;;
48897;SDS011;34713;50.038;20.000;2023-10-09T05:29:18;7.30;;;3.20;;
48897;SDS011;34713;50.038;20.000;2023-10-09T05:31:55;9.70;;;3.70;;
48897;SDS011;34713;50.038;20.000;2023-10-09T05:34:41;9.50;;;3.80;;
48897;SDS011;34713;50.038;20.000;2023-10-09T05:37:31;6.70;;;4.00;;
48897;SDS011;34713;50.038;20.000;2023-10-09T05:40:38;8.50;;;3.60;;
48897;SDS011;34713;50.038;20.000;2023-10-09T05:43:10;7.90;;;3.50;;
48897;SDS011;34713;50.038;20.000;2023-10-09T05:45:56;9.90;;;4.40;;
48897;SDS011;34713;50.038;20.000;2023-10-09T05:48:36;8.10;;;4.00;;
48897;SDS011;34713;50.038;20.000;2023-10-09T05:51:06;6.60;;;3.70;;
48897;SDS011;34713;50.038;20.000;2023-10-09T05:53:36;7.30;;;3.50;;
48897;SDS011;34713;50.038;20.000;2023-10-09T05:56:21;6.00;;;3.60;;
48897;SDS011;34713;50.038;20.000;2023-10-09T05:59:06;8.80;;;3.50;;
48897;SDS011;34713;50.038;20.000;2023-10-09T06:04:34;8.30;;;3.60;;
48897;SDS011;34713;50.038;20.000;2023-10-09T06:07:20;7.60;;;3.90;;
48897;SDS011;34713;50.038;20.000;2023-10-09T06:10:07;9.80;;;3.80;;
48897;SDS011;34713;50.038;20.000;2023-10-09T06:12:46;7.40;;;3.60;;
48897;SDS011;34713;50.038;20.000;2023-10-09T06:15:16;11.30;;;3.90;;
48897;SDS011;34713;50.038;20.000;2023-10-09T06:18:05;9.70;;;3.40;;
48897;SDS011;34713;50.038;20.000;2023-10-09T06:20:50;9.10;;;3.50;;
48897;SDS011;34713;50.038;20.000;2023-10-09T06:23:36;5.50;;;3.30;;
48897;SDS011;34713;50.038;20.000;2023-10-09T06:26:21;8.20;;;3.90;;
48897;SDS011;34713;50.038;20.000;2023-10-09T06:28:51;6.90;;;3.20;;
48897;SDS011;34713;50.038;20.000;2023-10-09T06:31:38;6.60;;;3.60;;
48897;SDS011;34713;50.038;20.000;2023-10-09T06:34:28;9.70;;;3.80;;
48897;SDS011;34713;50.038;20.000;2023-10-09T06:37:01;7.80;;;4.00;;
48897;SDS011;34713;50.038;20.000;2023-10-09T06:39:36;4.80;;;2.70;;
48897;SDS011;34713;50.038;20.000;2023-10-09T06:42:18;7.60;;;3.40;;
48897;SDS011;34713;50.038;20.000;2023-10-09T06:45:03;8.20;;;3.80;;
48897;SDS011;34713;50.038;20.000;2023-10-09T06:47:43;7.40;;;3.70;;
48897;SDS011;34713;50.038;20.000;2023-10-09T06:50:22;14.10;;;3.60;;
48897;SDS011;34713;50.038;20.000;2023-10-09T06:52:54;5.80;;;2.90;;
48897;SDS011;34713;50.038;20.000;2023-10-09T06:55:24;7.80;;;3.30;;
48897;SDS011;34713;50.038;20.000;2023-10-09T06:58:03;5.00;;;2.80;;
48897;SDS011;34713;50.038;20.000;2023-10-09T07:00:41;7.80;;;3.30;;
48897;SDS011;34713;50.038;20.000;2023-10-09T07:03:28;7.70;;;3.10;;
48897;SDS011;34713;50.038;20.000;2023-10-09T07:06:08;5.60;;;3.00;;
48897;SDS011;34713;50.038;20.000;2023-10-09T07:08:50;9.80;;;3.40;;
48897;SDS011;34713;50.038;20.000;2023-10-09T07:14:14;5.30;;;2.80;;
48897;SDS011;34713;50.038;20.000;2023-10-09T07:16:56;5.70;;;3.10;;
48897;SDS011;34713;50.038;20.000;2023-10-09T07:22:01;6.00;;;3.10;;
48897;SDS011;34713;50.038;20.000;2023-10-09T07:24:42;5.00;;;2.80;;
48897;SDS011;34713;50.038;20.000;2023-10-09T07:27:16;6.10;;;2.50;;
48897;SDS011;34713;50.038;20.000;2023-10-09T07:29:44;7.80;;;3.30;;
48897;SDS011;34713;50.038;20.000;2023-10-09T07:32:17;6.00;;;3.70;;
48897;SDS011;34713;50.038;20.000;2023-10-09T07:34:49;6.20;;;3.30;;
48897;SDS011;34713;50.038;20.000;2023-10-09T07:37:21;4.70;;;2.90;;
48897;SDS011;34713;50.038;20.000;2023-10-09T07:39:52;4.70;;;2.60;;
48897;SDS011;34713;50.038;20.000;2023-10-09T07:42:26;4.90;;;2.90;;
48897;SDS011;34713;50.038;20.000;2023-10-09T07:45:00;10.20;;;3.30;;
48897;SDS011;34713;50.038;20.000;2023-10-09T07:47:40;11.30;;;3.10;;
48897;SDS011;34713;50.038;20.000;2023-10-09T07:50:36;11.90;;;3.30;;
48897;SDS011;34713;50.038;20.000;2023-10-09T07:53:07;8.00;;;3.10;;
48897;SDS011;34713;50.038;20.000;2023-10-09T07:56:04;4.70;;;2.40;;
48897;SDS011;34713;50.038;20.000;2023-10-09T07:58:35;6.20;;;2.70;;
48897;SDS011;34713;50.038;20.000;2023-10-09T08:01:13;5.20;;;2.60;;
48897;SDS011;34713;50.038;20.000;2023-10-09T08:04:01;6.10;;;2.60;;
48897;SDS011;34713;50.038;20.000;2023-10-09T08:06:37;4.70;;;2.50;;
48897;SDS011;34713;50.038;20.000;2023-10-09T08:09:05;4.80;;;2.30;;
48897;SDS011;34713;50.038;20.000;2023-10-09T08:11:42;4.70;;;2.30;;
48897;SDS011;34713;50.038;20.000;2023-10-09T08:14:14;4.50;;;2.20;;
48897;SDS011;34713;50.038;20.000;2023-10-09T08:19:56;4.20;;;1.70;;
48897;SDS011;34713;50.038;20.000;2023-10-09T08:22:25;5.30;;;2.50;;
48897;SDS011;34713;50.038;20.000;2023-10-09T08:24:55;4.00;;;1.80;;
48897;SDS011;34713;50.038;20.000;2023-10-09T08:27:23;4.00;;;1.90;;
48897;SDS011;34713;50.038;20.000;2023-10-09T08:30:00;4.60;;;1.80;;
48897;SDS011;34713;50.038;20.000;2023-10-09T08:32:59;3.90;;;1.50;;
48897;SDS011;34713;50.038;20.000;2023-10-09T08:35:30;3.50;;;1.40;;
48897;SDS011;34713;50.038;20.000;2023-10-09T08:38:00;3.30;;;1.40;;
48897;SDS011;34713;50.038;20.000;2023-10-09T08:40:39;2.30;;;1.40;;
48897;SDS011;34713;50.038;20.000;2023-10-09T08:43:14;3.00;;;1.30;;
48897;SDS011;34713;50.038;20.000;2023-10-09T08:45:46;2.40;;;1.30;;
48897;SDS011;34713;50.038;20.000;2023-10-09T08:48:14;3.10;;;1.60;;
48897;SDS011;34713;50.038;20.000;2023-10-09T08:50:45;4.10;;;1.30;;
48897;SDS011;34713;50.038;20.000;2023-10-09T08:53:13;4.00;;;1.30;;
48897;SDS011;34713;50.038;20.000;2023-10-09T08:58:30;2.00;;;1.00;;
48897;SDS011;34713;50.038;20.000;2023-10-09T09:01:03;1.60;;;0.80;;
48897;SDS011;34713;50.038;20.000;2023-10-09T09:03:38;1.80;;;1.20;;
48897;SDS011;34713;50.038;20.000;2023-10-09T09:06:07;3.40;;;1.20;;
48897;SDS011;34713;50.038;20.000;2023-10-09T09:08:34;2.20;;;1.10;;
48897;SDS011;34713;50.038;20.000;2023-10-09T09:11:09;1.70;;;1.10;;
48897;SDS011;34713;50.038;20.000;2023-10-09T09:16:23;2.60;;;1.20;;
48897;SDS011;34713;50.038;20.000;2023-10-09T09:19:05;2.70;;;1.40;;
48897;SDS011;34713;50.038;20.000;2023-10-09T09:21:38;3.50;;;1.30;;
48897;SDS011;34713;50.038;20.000;2023-10-09T09:24:08;3.50;;;1.60;;
48897;SDS011;34713;50.038;20.000;2023-10-09T09:27:04;4.70;;;1.70;;
48897;SDS011;34713;50.038;20.000;2023-10-09T09:29:44;4.50;;;1.80;;
48897;SDS011;34713;50.038;20.000;2023-10-09T09:32:28;2.60;;;1.40;;
48897;SDS011;34713;50.038;20.000;2023-10-09T09:35:02;4.40;;;1.70;;
48897;SDS011;34713;50.038;20.000;2023-10-09T09:37:32;3.10;;;1.30;;
48897;SDS011;34713;50.038;20.000;2023-10-09T09:40:19;3.20;;;1.00;;
48897;SDS011;34713;50.038;20.000;2023-10-09T09:42:57;1.90;;;1.20;;
48897;SDS011;34713;50.038;20.000;2023-10-09T09:45:38;4.20;;;2.10;;
48897;SDS011;34713;50.038;20.000;2023-10-09T09:48:14;2.20;;;1.10;;
48897;SDS011;34713;50.038;20.000;2023-10-09T09:50:43;2.30;;;1.20;;
48897;SDS011;34713;50.038;20.000;2023-10-09T09:53:18;2.50;;;1.60;;
48897;SDS011;34713;50.038;20.000;2023-10-09T09:55:53;4.90;;;1.30;;
48897;SDS011;34713;50.038;20.000;2023-10-09T09:58:25;4.70;;;1.40;;
48897;SDS011;34713;50.038;20.000;2023-10-09T10:01:00;4.40;;;1.40;;
48897;SDS011;34713;50.038;20.000;2023-10-09T10:03:34;1.50;;;1.10;;
48897;SDS011;34713;50.038;20.000;2023-10-09T10:06:04;4.40;;;1.50;;
48897;SDS011;34713;50.038;20.000;2023-10-09T10:08:38;3.10;;;1.20;;
48897;SDS011;34713;50.038;20.000;2023-10-09T10:11:51;2.90;;;1.40;;
48897;SDS011;34713;50.038;20.000;2023-10-09T10:14:36;3.60;;;1.50;;
48897;SDS011;34713;50.038;20.000;2023-10-09T10:17:19;4.40;;;1.50;;
48897;SDS011;34713;50.038;20.000;2023-10-09T10:22:46;1.60;;;1.00;;
48897;SDS011;34713;50.038;20.000;2023-10-09T10:25:33;3.20;;;1.30;;
48897;SDS011;34713;50.038;20.000;2023-10-09T10:28:20;4.10;;;1.40;;
48897;SDS011;34713;50.038;20.000;2023-10-09T10:37:32;3.60;;;1.60;;
48897;SDS011;34713;50.038;20.000;2023-10-09T10:40:24;3.20;;;1.40;;
48897;SDS011;34713;50.038;20.000;2023-10-09T10:43:44;4.20;;;1.60;;
48897;SDS011;34713;50.038;20.000;2023-10-09T10:46:40;4.20;;;1.40;;
48897;SDS011;34713;50.038;20.000;2023-10-09T10:49:16;2.90;;;1.20;;
48897;SDS011;34713;50.038;20.000;2023-10-09T10:51:50;3.70;;;1.50;;
48897;SDS011;34713;50.038;20.000;2023-10-09T10:54:37;2.50;;;1.10;;
48897;SDS011;34713;50.038;20.000;2023-10-09T10:57:28;2.00;;;1.20;;
48897;SDS011;34713;50.038;20.000;2023-10-09T11:00:17;1.70;;;1.10;;
48897;SDS011;34713;50.038;20.000;2023-10-09T11:03:02;3.40;;;1.50;;
48897;SDS011;34713;50.038;20.000;2023-10-09T11:05:44;2.20;;;1.20;;
48897;SDS011;34713;50.038;20.000;2023-10-09T11:08:17;2.60;;;1.30;;
48897;SDS011;34713;50.038;20.000;2023-10-09T11:10:49;2.70;;;1.30;;
48897;SDS011;34713;50.038;20.000;2023-10-09T11:13:20;3.50;;;1.50;;
48897;SDS011;34713;50.038;20.000;2023-10-09T11:15:57;3.90;;;1.60;;
48897;SDS011;34713;50.038;20.000;2023-10-09T11:18:41;3.50;;;1.60;;
48897;SDS011;34713;50.038;20.000;2023-10-09T11:21:14;2.70;;;1.50;;
48897;SDS011;34713;50.038;20.000;2023-10-09T11:23:42;3.50;;;1.60;;
48897;SDS011;34713;50.038;20.000;2023-10-09T11:26:25;1.90;;;1.30;;
48897;SDS011;34713;50.038;20.000;2023-10-09T11:29:27;2.90;;;1.50;;
48897;SDS011;34713;50.038;20.000;2023-10-09T11:31:59;3.90;;;2.10;;
48897;SDS011;34713;50.038;20.000;2023-10-09T11:34:48;5.20;;;2.30;;
48897;SDS011;34713;50.038;20.000;2023-10-09T11:40:34;4.90;;;2.10;;
48897;SDS011;34713;50.038;20.000;2023-10-09T11:43:29;4.40;;;2.10;;
48897;SDS011;34713;50.038;20.000;2023-10-09T11:46:32;2.70;;;1.80;;
48897;SDS011;34713;50.038;20.000;2023-10-09T11:49:14;5.20;;;1.90;;
48897;SDS011;34713;50.038;20.000;2023-10-09T11:52:04;4.40;;;1.90;;
48897;SDS011;34713;50.038;20.000;2023-10-09T11:54:34;4.00;;;1.90;;
48897;SDS011;34713;50.038;20.000;2023-10-09T11:57:02;4.10;;;2.00;;
48897;SDS011;34713;50.038;20.000;2023-10-09T11:59:31;3.40;;;2.00;;
48897;SDS011;34713;50.038;20.000;2023-10-09T12:02:32;4.80;;;1.90;;
48897;SDS011;34713;50.038;20.000;2023-10-09T12:04:59;9.90;;;1.80;;
48897;SDS011;34713;50.038;20.000;2023-10-09T12:07:26;6.30;;;2.30;;
48897;SDS011;34713;50.038;20.000;2023-10-09T12:09:54;6.10;;;2.10;;
48897;SDS011;34713;50.038;20.000;2023-10-09T12:12:22;4.20;;;2.10;;
48897;SDS011;34713;50.038;20.000;2023-10-09T12:14:53;3.90;;;1.90;;
48897;SDS011;34713;50.038;20.000;2023-10-09T12:17:31;5.00;;;2.00;;
48897;SDS011;34713;50.038;20.000;2023-10-09T12:20:01;4.70;;;2.20;;
48897;SDS011;34713;50.038;20.000;2023-10-09T12:22:40;3.60;;;1.70;;
48897;SDS011;34713;50.038;20.000;2023-10-09T12:25:07;2.70;;;1.60;;
48897;SDS011;34713;50.038;20.000;2023-10-09T12:27:36;3.80;;;1.90;;
48897;SDS011;34713;50.038;20.000;2023-10-09T12:30:03;4.30;;;1.50;;
48897;SDS011;34713;50.038;20.000;2023-10-09T12:32:34;2.00;;;1.30;;
48897;SDS011;34713;50.038;20.000;2023-10-09T12:35:02;9.50;;;1.70;;
48897;SDS011;34713;50.038;20.000;2023-10-09T12:37:30;3.40;;;1.80;;
48897;SDS011;34713;50.038;20.000;2023-10-09T12:39:57;2.70;;;1.50;;
48897;SDS011;34713;50.038;20.000;2023-10-09T12:42:25;3.10;;;1.70;;
48897;SDS011;34713;50.038;20.000;2023-10-09T12:44:54;3.80;;;1.70;;
48897;SDS011;34713;50.038;20.000;2023-10-09T12:47:23;2.80;;;1.60;;
48897;SDS011;34713;50.038;20.000;2023-10-09T12:49:53;3.60;;;1.30;;
48897;SDS011;34713;50.038;20.000;2023-10-09T12:52:20;3.30;;;1.70;;
48897;SDS011;34713;50.038;20.000;2023-10-09T12:57:22;2.60;;;1.50;;
48897;SDS011;34713;50.038;20.000;2023-10-09T12:59:51;3.10;;;1.80;;
48897;SDS011;34713;50.038;20.000;2023-10-09T13:02:20;4.20;;;1.90;;
48897;SDS011;34713;50.038;20.000;2023-10-09T13:04:59;3.60;;;2.00;;
48897;SDS011;34713;50.038;20.000;2023-10-09T13:07:26;4.00;;;2.30;;
48897;SDS011;34713;50.038;20.000;2023-10-09T13:09:54;3.30;;;1.80;;
48897;SDS011;34713;50.038;20.000;2023-10-09T13:12:36;4.60;;;1.90;;
48897;SDS011;34713;50.038;20.000;2023-10-09T13:15:08;2.70;;;1.70;;
48897;SDS011;34713;50.038;20.000;2023-10-09T13:17:36;2.80;;;1.70;;
48897;SDS011;34713;50.038;20.000;2023-10-09T13:20:05;3.70;;;1.90;;
48897;SDS011;34713;50.038;20.000;2023-10-09T13:22:42;3.80;;;2.10;;
48897;SDS011;34713;50.038;20.000;2023-10-09T13:25:09;2.60;;;1.80;;
48897;SDS011;34713;50.038;20.000;2023-10-09T13:27:51;3.10;;;2.00;;
48897;SDS011;34713;50.038;20.000;2023-10-09T13:30:18;2.40;;;1.70;;
48897;SDS011;34713;50.038;20.000;2023-10-09T13:32:59;3.50;;;1.90;;
48897;SDS011;34713;50.038;20.000;2023-10-09T13:35:26;3.70;;;1.90;;
48897;SDS011;34713;50.038;20.000;2023-10-09T13:38:04;3.50;;;1.90;;
48897;SDS011;34713;50.038;20.000;2023-10-09T13:40:36;3.60;;;2.00;;
48897;SDS011;34713;50.038;20.000;2023-10-09T13:43:10;3.20;;;1.90;;
48897;SDS011;34713;50.038;20.000;2023-10-09T13:45:42;3.60;;;2.00;;
48897;SDS011;34713;50.038;20.000;2023-10-09T13:48:16;4.70;;;2.00;;
48897;SDS011;34713;50.038;20.000;2023-10-09T13:50:44;3.90;;;2.10;;
48897;SDS011;34713;50.038;20.000;2023-10-09T13:53:11;3.10;;;2.20;;
48897;SDS011;34713;50.038;20.000;2023-10-09T13:55:40;2.90;;;2.20;;
48897;SDS011;34713;50.038;20.000;2023-10-09T13:58:10;3.80;;;2.20;;
48897;SDS011;34713;50.038;20.000;2023-10-09T14:00:48;4.60;;;2.30;;
48897;SDS011;34713;50.038;20.000;2023-10-09T14:03:16;3.40;;;2.30;;
48897;SDS011;34713;50.038;20.000;2023-10-09T14:05:46;4.00;;;2.40;;
48897;SDS011;34713;50.038;20.000;2023-10-09T14:08:24;3.70;;;2.20;;
48897;SDS011;34713;50.038;20.000;2023-10-09T14:11:16;4.10;;;2.40;;
48897;SDS011;34713;50.038;20.000;2023-10-09T14:13:45;5.20;;;2.40;;
48897;SDS011;34713;50.038;20.000;2023-10-09T14:16:15;4.80;;;2.50;;
48897;SDS011;34713;50.038;20.000;2023-10-09T14:18:54;3.40;;;2.60;;
48897;SDS011;34713;50.038;20.000;2023-10-09T14:21:24;7.30;;;2.20;;
48897;SDS011;34713;50.038;20.000;2023-10-09T14:23:52;4.90;;;2.50;;
48897;SDS011;34713;50.038;20.000;2023-10-09T14:26:24;3.70;;;2.40;;
48897;SDS011;34713;50.038;20.000;2023-10-09T14:28:52;4.00;;;2.20;;
48897;SDS011;34713;50.038;20.000;2023-10-09T14:31:23;5.70;;;2.50;;
48897;SDS011;34713;50.038;20.000;2023-10-09T14:33:57;5.30;;;2.40;;
48897;SDS011;34713;50.038;20.000;2023-10-09T14:36:24;5.70;;;2.50;;
48897;SDS011;34713;50.038;20.000;2023-10-09T14:39:00;5.20;;;2.30;;
48897;SDS011;34713;50.038;20.000;2023-10-09T14:41:28;4.40;;;2.20;;
48897;SDS011;34713;50.038;20.000;2023-10-09T14:43:59;5.40;;;2.70;;
48897;SDS011;34713;50.038;20.000;2023-10-09T14:46:27;4.10;;;2.80;;
48897;SDS011;34713;50.038;20.000;2023-10-09T14:48:55;5.20;;;2.50;;
48897;SDS011;34713;50.038;20.000;2023-10-09T14:51:23;3.90;;;2.70;;
48897;SDS011;34713;50.038;20.000;2023-10-09T14:53:55;5.20;;;3.00;;
48897;SDS011;34713;50.038;20.000;2023-10-09T14:56:30;4.40;;;2.60;;
48897;SDS011;34713;50.038;20.000;2023-10-09T14:58:57;6.10;;;3.30;;
48897;SDS011;34713;50.038;20.000;2023-10-09T15:01:28;4.90;;;3.20;;
48897;SDS011;34713;50.038;20.000;2023-10-09T15:03:59;3.90;;;2.60;;
48897;SDS011;34713;50.038;20.000;2023-10-09T15:06:27;6.10;;;3.90;;
48897;SDS011;34713;50.038;20.000;2023-10-09T15:08:57;5.10;;;2.90;;
48897;SDS011;34713;50.038;20.000;2023-10-09T15:11:25;4.10;;;2.70;;
48897;SDS011;34713;50.038;20.000;2023-10-09T15:14:00;7.40;;;3.00;;
48897;SDS011;34713;50.038;20.000;2023-10-09T15:16:45;5.20;;;2.50;;
48897;SDS011;34713;50.038;20.000;2023-10-09T15:19:14;4.60;;;3.10;;
48897;SDS011;34713;50.038;20.000;2023-10-09T15:21:42;6.70;;;2.90;;
48897;SDS011;34713;50.038;20.000;2023-10-09T15:24:13;5.30;;;2.80;;
48897;SDS011;34713;50.038;20.000;2023-10-09T15:26:42;6.70;;;2.90;;
48897;SDS011;34713;50.038;20.000;2023-10-09T15:29:17;5.30;;;2.80;;
48897;SDS011;34713;50.038;20.000;2023-10-09T15:31:48;4.80;;;2.80;;
48897;SDS011;34713;50.038;20.000;2023-10-09T15:40:10;7.30;;;3.20;;
48897;SDS011;34713;50.038;20.000;2023-10-09T15:42:41;5.60;;;3.30;;
48897;SDS011;34713;50.038;20.000;2023-10-09T15:45:20;5.30;;;3.20;;
48897;SDS011;34713;50.038;20.000;2023-10-09T15:47:50;7.90;;;3.20;;
48897;SDS011;34713;50.038;20.000;2023-10-09T15:50:28;5.70;;;3.10;;
48897;SDS011;34713;50.038;20.000;2023-10-09T15:52:55;4.50;;;2.90;;
48897;SDS011;34713;50.038;20.000;2023-10-09T15:55:22;9.20;;;3.40;;
48897;SDS011;34713;50.038;20.000;2023-10-09T15:57:50;7.90;;;3.10;;
48897;SDS011;34713;50.038;20.000;2023-10-09T16:00:45;6.00;;;3.30;;
48897;SDS011;34713;50.038;20.000;2023-10-09T16:06:42;4.40;;;2.90;;
48897;SDS011;34713;50.038;20.000;2023-10-09T16:09:31;8.40;;;2.80;;
48897;SDS011;34713;50.038;20.000;2023-10-09T16:12:05;5.20;;;2.80;;
48897;SDS011;34713;50.038;20.000;2023-10-09T16:14:32;5.00;;;3.30;;
48897;SDS011;34713;50.038;20.000;2023-10-09T16:17:01;4.90;;;3.20;;
48897;SDS011;34713;50.038;20.000;2023-10-09T16:19:28;5.50;;;3.10;;
48897;SDS011;34713;50.038;20.000;2023-10-09T16:21:59;4.30;;;3.00;;
48897;SDS011;34713;50.038;20.000;2023-10-09T16:24:30;9.40;;;3.50;;
48897;SDS011;34713;50.038;20.000;2023-10-09T16:27:01;6.90;;;2.80;;
48897;SDS011;34713;50.038;20.000;2023-10-09T16:29:27;7.00;;;3.20;;
48897;SDS011;34713;50.038;20.000;2023-10-09T16:31:57;5.10;;;2.70;;
48897;SDS011;34713;50.038;20.000;2023-10-09T16:34:25;6.40;;;3.40;;
48897;SDS011;34713;50.038;20.000;2023-10-09T16:37:16;6.90;;;3.20;;
48897;SDS011;34713;50.038;20.000;2023-10-09T16:43:16;6.20;;;3.50;;
48897;SDS011;34713;50.038;20.000;2023-10-09T16:45:43;5.80;;;3.50;;
48897;SDS011;34713;50.038;20.000;2023-10-09T16:48:20;8.00;;;3.70;;
48897;SDS011;34713;50.038;20.000;2023-10-09T16:54:06;6.10;;;3.50;;
48897;SDS011;34713;50.038;20.000;2023-10-09T16:56:39;3.90;;;3.20;;
48897;SDS011;34713;50.038;20.000;2023-10-09T16:59:11;6.70;;;3.50;;
48897;SDS011;34713;50.038;20.000;2023-10-09T17:01:44;5.50;;;3.40;;
48897;SDS011;34713;50.038;20.000;2023-10-09T17:07:20;6.10;;;3.30;;
48897;SDS011;34713;50.038;20.000;2023-10-09T17:09:51;5.90;;;3.70;;
48897;SDS011;34713;50.038;20.000;2023-10-09T17:12:20;5.20;;;3.50;;
48897;SDS011;34713;50.038;20.000;2023-10-09T17:14:47;4.80;;;3.10;;
48897;SDS011;34713;50.038;20.000;2023-10-09T17:17:15;7.10;;;4.10;;
48897;SDS011;34713;50.038;20.000;2023-10-09T17:19:44;7.10;;;3.90;;
48897;SDS011;34713;50.038;20.000;2023-10-09T17:22:14;6.70;;;4.10;;
48897;SDS011;34713;50.038;20.000;2023-10-09T17:24:41;8.20;;;4.00;;
48897;SDS011;34713;50.038;20.000;2023-10-09T17:27:08;6.40;;;3.80;;
48897;SDS011;34713;50.038;20.000;2023-10-09T17:29:35;8.90;;;3.80;;
48897;SDS011;34713;50.038;20.000;2023-10-09T17:32:05;7.60;;;4.40;;
48897;SDS011;34713;50.038;20.000;2023-10-09T17:34:32;5.60;;;4.00;;
48897;SDS011;34713;50.038;20.000;2023-10-09T17:37:00;5.50;;;4.10;;
48897;SDS011;34713;50.038;20.000;2023-10-09T17:39:33;5.40;;;4.00;;
48897;SDS011;34713;50.038;20.000;2023-10-09T17:42:00;7.40;;;3.80;;
48897;SDS011;34713;50.038;20.000;2023-10-09T17:44:31;6.90;;;5.00;;
48897;SDS011;34713;50.038;20.000;2023-10-09T17:46:57;6.20;;;4.80;;
48897;SDS011;34713;50.038;20.000;2023-10-09T17:49:28;7.00;;;5.30;;
48897;SDS011;34713;50.038;20.000;2023-10-09T17:52:26;6.90;;;5.20;;
48897;SDS011;34713;50.038;20.000;2023-10-09T17:54:53;7.90;;;6.10;;